createdAt,value
2022-09-24T00:00:53.264Z,19.27
2022-09-24T00:03:23.544Z,20.43
2022-09-24T00:05:50.910Z,19.73
2022-09-24T00:08:19.329Z,19.17
2022-09-24T00:10:48.869Z,19.70
2022-09-24T00:13:18.660Z,19.43
2022-09-24T00:15:47.949Z,18.93
2022-09-24T00:18:17.411Z,19.60
2022-09-24T00:20:46.104Z,20.20
2022-09-24T00:23:13.502Z,20.00
2022-09-24T00:25:59.768Z,20.20
2022-09-24T00:28:30.128Z,20.67
2022-09-24T00:30:59.019Z,20.37
2022-09-24T00:33:28.082Z,20.07
2022-09-24T00:36:02.097Z,19.43
2022-09-24T00:38:29.964Z,20.07
2022-09-24T00:40:57.683Z,20.60
2022-09-24T00:43:27.050Z,20.53
2022-09-24T00:45:56.405Z,21.37
2022-09-24T00:48:24.523Z,21.77
2022-09-24T00:50:51.950Z,22.70
2022-09-24T00:53:23.030Z,22.73
2022-09-24T00:55:54.490Z,22.87
2022-09-24T00:58:23.888Z,23.07
2022-09-24T01:00:53.158Z,23.07
2022-09-24T01:03:23.173Z,21.83
2022-09-24T01:05:51.014Z,22.63
2022-09-24T01:08:20.850Z,23.00
2022-09-24T01:10:58.285Z,22.30
2022-09-24T01:13:36.034Z,20.97
2022-09-24T01:16:08.325Z,20.53
2022-09-24T01:18:39.769Z,20.43
2022-09-24T01:21:20.416Z,20.60
2022-09-24T01:24:18.379Z,21.20
2022-09-24T01:26:57.026Z,19.57
2022-09-24T01:29:31.952Z,19.97
2022-09-24T01:32:05.199Z,20.90
2022-09-24T01:34:38.494Z,20.13
2022-09-24T01:37:05.895Z,21.30
2022-09-24T01:39:34.217Z,20.40
2022-09-24T01:42:02.215Z,22.93
2022-09-24T01:44:31.520Z,21.67
2022-09-24T01:46:59.548Z,20.87
2022-09-24T01:49:27.349Z,20.03
2022-09-24T01:51:58.242Z,19.60
2022-09-24T01:54:28.742Z,17.73
2022-09-24T01:56:59.593Z,18.80
2022-09-24T01:59:31.301Z,17.80
2022-09-24T02:02:02.362Z,17.60
2022-09-24T02:04:31.160Z,18.40
2022-09-24T02:07:02.197Z,17.87
2022-09-24T02:09:31.131Z,18.37
2022-09-24T02:11:59.685Z,17.97
2022-09-24T02:14:28.417Z,18.07
2022-09-24T02:16:58.971Z,16.80
2022-09-24T02:19:29.457Z,17.57
2022-09-24T02:21:57.452Z,18.10
2022-09-24T02:24:27.585Z,17.60
2022-09-24T02:26:55.004Z,18.10
2022-09-24T02:29:23.200Z,18.17
2022-09-24T02:31:51.075Z,17.97
2022-09-24T02:34:21.993Z,19.87
2022-09-24T02:36:50.434Z,20.20
2022-09-24T02:39:18.405Z,21.20
2022-09-24T02:41:48.029Z,21.07
2022-09-24T02:44:16.213Z,20.17
2022-09-24T02:46:43.833Z,19.93
2022-09-24T02:49:11.681Z,20.80
2022-09-24T02:51:43.464Z,20.40
2022-09-24T02:54:11.487Z,19.00
2022-09-24T02:56:39.013Z,19.00
2022-09-24T02:59:07.597Z,18.30
2022-09-24T03:01:35.287Z,19.90
2022-09-24T03:04:03.289Z,19.03
2022-09-24T03:06:31.312Z,18.73
2022-09-24T03:09:00.871Z,20.10
2022-09-24T03:11:28.882Z,18.40
2022-09-24T03:13:56.258Z,18.27
2022-09-24T03:16:23.712Z,18.50
2022-09-24T03:18:51.110Z,19.50
2022-09-24T03:21:20.166Z,18.20
2022-09-24T03:23:47.757Z,18.30
2022-09-24T03:26:17.476Z,17.60
2022-09-24T03:28:44.897Z,16.97
2022-09-24T03:31:12.366Z,16.80
2022-09-24T03:33:41.692Z,16.37
2022-09-24T03:36:10.695Z,16.37
2022-09-24T03:38:39.733Z,19.43
2022-09-24T03:41:08.427Z,17.97
2022-09-24T03:43:37.950Z,18.40
2022-09-24T03:46:06.627Z,23.70
2022-09-24T03:48:35.264Z,17.63
2022-09-24T03:51:05.642Z,18.23
2022-09-24T03:53:33.232Z,22.07
2022-09-24T03:56:02.309Z,18.97
2022-09-24T03:58:31.594Z,16.97
2022-09-24T04:01:00.394Z,17.40
2022-09-24T04:03:27.758Z,17.37
2022-09-24T04:05:55.202Z,18.20
2022-09-24T04:08:23.447Z,17.00
2022-09-24T04:10:51.901Z,18.87
2022-09-24T04:13:20.058Z,17.40
2022-09-24T04:15:48.786Z,17.20
2022-09-24T04:18:17.620Z,16.33
2022-09-24T04:20:45.517Z,17.63
2022-09-24T04:23:12.948Z,16.90
2022-09-24T04:25:41.362Z,18.03
2022-09-24T04:28:10.231Z,17.57
2022-09-24T04:30:39.001Z,17.37
2022-09-24T04:33:07.122Z,19.37
2022-09-24T04:35:36.527Z,20.00
2022-09-24T04:38:04.936Z,19.63
2022-09-24T04:40:32.398Z,20.90
2022-09-24T04:43:00.160Z,21.93
2022-09-24T04:45:27.749Z,24.90
2022-09-24T04:47:57.327Z,25.97
2022-09-24T04:50:25.853Z,27.10
2022-09-24T04:52:55.009Z,27.87
2022-09-24T04:55:22.684Z,26.80
2022-09-24T04:57:50.861Z,27.67
2022-09-24T05:00:20.481Z,29.27
2022-09-24T05:02:48.372Z,29.03
2022-09-24T05:05:16.101Z,28.50
2022-09-24T05:07:44.537Z,29.87
2022-09-24T05:10:13.229Z,29.60
2022-09-24T05:12:41.778Z,28.80
2022-09-24T05:15:10.965Z,28.90
2022-09-24T05:17:39.663Z,28.33
2022-09-24T05:20:08.586Z,31.23
2022-09-24T05:22:37.342Z,31.17
2022-09-24T05:25:05.232Z,30.50
2022-09-24T05:27:33.026Z,31.40
2022-09-24T05:30:00.682Z,32.20
2022-09-24T05:32:28.142Z,31.60
2022-09-24T05:34:55.502Z,31.50
2022-09-24T05:37:22.835Z,29.70
2022-09-24T05:39:50.194Z,30.47
2022-09-24T05:42:17.517Z,29.33
2022-09-24T05:44:49.886Z,29.33
2022-09-24T05:47:19.413Z,30.47
2022-09-24T05:49:46.808Z,30.27
2022-09-24T05:52:14.147Z,30.10
2022-09-24T05:54:41.562Z,29.60
2022-09-24T05:57:08.854Z,29.27
2022-09-24T05:59:36.200Z,30.50
2022-09-24T06:02:04.941Z,29.43
2022-09-24T06:04:32.290Z,29.27
2022-09-24T06:06:59.670Z,28.77
2022-09-24T06:09:27.022Z,28.83
2022-09-24T06:11:54.597Z,29.63
2022-09-24T06:14:21.962Z,28.03
2022-09-24T06:16:49.334Z,29.10
2022-09-24T06:19:18.057Z,29.47
2022-09-24T06:21:45.407Z,28.73
2022-09-24T06:24:12.750Z,29.27
2022-09-24T06:26:40.061Z,28.70
2022-09-24T06:29:07.882Z,29.67
2022-09-24T06:31:35.492Z,28.63
2022-09-24T06:34:03.570Z,30.33
2022-09-24T06:36:32.253Z,30.07
2022-09-24T06:38:59.946Z,29.97
2022-09-24T06:41:27.304Z,29.17
2022-09-24T06:43:54.857Z,30.73
2022-09-24T06:46:23.013Z,31.53
2022-09-24T06:48:50.505Z,32.20
2022-09-24T06:51:17.858Z,30.47
2022-09-24T06:53:46.506Z,29.40
2022-09-24T06:56:13.862Z,29.77
2022-09-24T06:58:41.181Z,30.93
2022-09-24T07:01:08.975Z,30.77
2022-09-24T07:03:36.379Z,31.20
2022-09-24T07:06:05.516Z,30.27
2022-09-24T07:08:33.550Z,31.30
2022-09-24T07:11:02.240Z,30.77
2022-09-24T07:13:29.783Z,33.13
2022-09-24T07:15:57.264Z,34.70
2022-09-24T07:18:24.730Z,36.70
2022-09-24T07:20:52.991Z,35.03
2022-09-24T07:23:21.437Z,35.77
2022-09-24T07:25:49.473Z,38.67
2022-09-24T07:28:18.637Z,37.53
2022-09-24T07:30:45.985Z,37.10
2022-09-24T07:33:13.492Z,40.73
2022-09-24T07:35:41.844Z,40.57
2022-09-24T07:38:12.784Z,40.20
2022-09-24T07:40:40.344Z,41.43
2022-09-24T07:43:13.497Z,40.80
2022-09-24T07:45:42.774Z,40.80
2022-09-24T07:48:11.059Z,40.90
2022-09-24T07:50:40.506Z,40.97
2022-09-24T07:53:08.026Z,41.63
2022-09-24T07:55:39.249Z,36.73
2022-09-24T07:58:07.342Z,38.90
2022-09-24T08:00:34.662Z,40.10
2022-09-24T08:03:04.860Z,39.93
2022-09-24T08:05:32.855Z,40.53
2022-09-24T08:08:00.591Z,41.87
2022-09-24T08:10:28.677Z,39.93
2022-09-24T08:12:56.955Z,41.20
2022-09-24T08:15:24.478Z,42.77
2022-09-24T08:17:51.937Z,39.43
2022-09-24T08:20:21.415Z,38.50
2022-09-24T08:22:48.860Z,39.40
2022-09-24T08:25:17.611Z,39.63
2022-09-24T08:27:45.009Z,38.67
2022-09-24T08:30:13.456Z,37.07
2022-09-24T08:32:40.858Z,36.67
2022-09-24T08:35:09.198Z,36.97
2022-09-24T08:37:38.933Z,35.50
2022-09-24T08:40:07.443Z,34.77
2022-09-24T08:42:40.744Z,35.23
2022-09-24T08:45:27.253Z,35.00
2022-09-24T08:47:56.529Z,35.07
2022-09-24T08:50:25.798Z,34.13
2022-09-24T08:53:06.415Z,34.33
2022-09-24T08:55:37.336Z,36.47
2022-09-24T08:58:21.301Z,34.27
2022-09-24T09:00:55.539Z,36.60
2022-09-24T09:03:29.345Z,36.27
2022-09-24T09:06:00.523Z,35.30
2022-09-24T09:08:54.947Z,37.17
2022-09-24T09:11:25.890Z,35.90
2022-09-24T09:13:57.482Z,36.20
2022-09-24T09:16:28.851Z,36.67
2022-09-24T09:19:00.238Z,36.67
2022-09-24T09:21:31.014Z,36.57
2022-09-24T09:24:00.459Z,37.27
2022-09-24T09:26:27.877Z,35.80
2022-09-24T09:28:59.554Z,34.67
2022-09-24T09:31:34.399Z,34.47
2022-09-24T09:34:12.396Z,35.37
2022-09-24T09:36:47.917Z,35.63
2022-09-24T09:39:41.487Z,33.63
2022-09-24T09:42:27.390Z,35.47
2022-09-24T09:44:55.319Z,34.10
2022-09-24T09:47:31.372Z,35.77
2022-09-24T09:50:05.113Z,36.47
2022-09-24T09:52:36.778Z,36.37
2022-09-24T09:55:06.570Z,35.37
2022-09-24T09:57:35.410Z,36.63
2022-09-24T10:00:03.740Z,36.83
2022-09-24T10:02:42.960Z,38.37
2022-09-24T10:05:23.577Z,37.80
2022-09-24T10:07:54.427Z,36.50
2022-09-24T10:10:24.617Z,37.57
2022-09-24T10:12:54.422Z,37.50
2022-09-24T10:15:24.542Z,40.10
2022-09-24T10:17:53.557Z,38.87
2022-09-24T10:20:23.706Z,37.97
2022-09-24T10:22:52.961Z,39.17
2022-09-24T10:25:26.117Z,39.10
2022-09-24T10:27:55.275Z,38.90
2022-09-24T10:30:33.730Z,37.47
2022-09-24T10:33:02.455Z,38.07
2022-09-24T10:35:31.188Z,37.53
2022-09-24T10:38:00.438Z,37.60
2022-09-24T10:40:30.978Z,38.07
2022-09-24T10:43:00.341Z,37.80
2022-09-24T10:45:55.978Z,36.73
2022-09-24T10:48:27.295Z,37.83
2022-09-24T10:50:58.718Z,36.70
2022-09-24T10:53:34.553Z,35.57
2022-09-24T10:56:07.591Z,34.67
2022-09-24T10:58:46.498Z,34.13
2022-09-24T11:01:18.013Z,34.53
2022-09-24T11:03:55.318Z,35.07
2022-09-24T11:06:36.242Z,34.80
2022-09-24T11:09:11.129Z,34.87
2022-09-24T11:11:47.784Z,34.50
2022-09-24T11:14:24.893Z,36.40
2022-09-24T11:17:23.258Z,35.87
2022-09-24T11:20:16.636Z,35.57
2022-09-24T11:22:57.383Z,33.20
2022-09-24T11:25:32.066Z,34.77
2022-09-24T11:28:13.197Z,33.90
2022-09-24T11:30:49.050Z,33.73
2022-09-24T11:33:27.197Z,33.20
2022-09-24T11:36:07.271Z,33.43
2022-09-24T11:38:45.157Z,32.97
2022-09-24T11:41:23.952Z,31.07
2022-09-24T11:44:28.880Z,32.37
2022-09-24T11:47:06.881Z,33.30
2022-09-24T11:49:45.452Z,33.80
2022-09-24T11:52:15.286Z,33.33
2022-09-24T11:54:49.902Z,35.30
2022-09-24T11:57:23.858Z,33.17
2022-09-24T11:59:55.404Z,35.63
2022-09-24T12:02:26.128Z,35.97
2022-09-24T12:04:58.185Z,33.57
2022-09-24T12:07:30.997Z,33.17
2022-09-24T12:10:00.962Z,32.13
2022-09-24T12:12:30.676Z,33.10
2022-09-24T12:15:03.021Z,32.30
2022-09-24T12:17:35.006Z,31.20
2022-09-24T12:20:06.582Z,31.47
2022-09-24T12:22:34.238Z,33.00
2022-09-24T12:25:01.762Z,34.27
2022-09-24T12:27:34.217Z,33.17
2022-09-24T12:30:25.318Z,33.47
2022-09-24T12:32:59.005Z,32.13
2022-09-24T12:35:34.442Z,30.30
2022-09-24T12:38:05.145Z,30.00
2022-09-24T12:40:44.355Z,30.67
2022-09-24T12:43:17.466Z,30.30
2022-09-24T12:45:47.570Z,32.80
2022-09-24T12:48:16.542Z,33.70
2022-09-24T12:50:45.905Z,34.93
2022-09-24T12:53:24.527Z,35.13
2022-09-24T12:55:52.163Z,35.97
2022-09-24T12:58:29.110Z,35.57
2022-09-24T13:01:12.170Z,35.20
2022-09-24T13:03:46.017Z,36.10
2022-09-24T13:06:24.479Z,36.87
2022-09-24T13:08:51.873Z,35.87
2022-09-24T13:11:31.277Z,43.13
2022-09-24T13:14:07.377Z,36.70
2022-09-24T13:16:40.337Z,36.20
2022-09-24T13:19:25.102Z,35.07
2022-09-24T13:21:56.259Z,34.70
2022-09-24T13:24:28.802Z,35.03
2022-09-24T13:26:56.265Z,34.67
2022-09-24T13:29:25.967Z,34.57
2022-09-24T13:31:57.557Z,33.20
2022-09-24T13:34:27.434Z,33.67
2022-09-24T13:36:58.389Z,33.03
2022-09-24T13:39:30.566Z,34.00
2022-09-24T13:42:02.375Z,35.77
2022-09-24T13:44:32.310Z,37.70
2022-09-24T13:47:06.208Z,38.50
2022-09-24T13:49:34.733Z,39.70
2022-09-24T13:52:10.037Z,38.80
2022-09-24T13:54:40.442Z,37.60
2022-09-24T13:57:12.742Z,37.43
2022-09-24T13:59:40.216Z,37.60
2022-09-24T14:02:27.766Z,37.50
2022-09-24T14:04:57.364Z,35.83
2022-09-24T14:07:25.264Z,35.70
2022-09-24T14:10:02.913Z,37.20
2022-09-24T14:12:30.313Z,36.90
2022-09-24T14:14:58.120Z,37.47
2022-09-24T14:17:27.376Z,36.77
2022-09-24T14:19:55.905Z,37.97
2022-09-24T14:22:25.174Z,38.50
2022-09-24T14:24:55.590Z,36.87
2022-09-24T14:27:23.979Z,37.53
2022-09-24T14:29:55.426Z,37.33
2022-09-24T14:32:24.243Z,37.60
2022-09-24T14:34:54.737Z,41.30
2022-09-24T14:37:24.721Z,37.43
2022-09-24T14:39:58.678Z,36.57
2022-09-24T14:42:29.139Z,35.17
2022-09-24T14:44:56.906Z,35.90
2022-09-24T14:47:29.222Z,35.77
2022-09-24T14:49:57.957Z,37.23
2022-09-24T14:52:31.282Z,37.03
2022-09-24T14:55:04.746Z,39.67
2022-09-24T14:57:37.325Z,37.80
2022-09-24T15:00:19.182Z,36.37
2022-09-24T15:02:50.451Z,38.73
2022-09-24T15:05:24.783Z,37.13
2022-09-24T15:07:52.240Z,37.63
2022-09-24T15:10:23.194Z,38.10
2022-09-24T15:12:52.198Z,37.47
2022-09-24T15:15:32.052Z,37.07
2022-09-24T15:17:59.734Z,38.07
2022-09-24T15:20:28.463Z,39.37
2022-09-24T15:22:56.506Z,38.07
2022-09-24T15:25:23.857Z,37.90
2022-09-24T15:27:54.409Z,38.03
2022-09-24T15:30:22.357Z,38.60
2022-09-24T15:32:51.058Z,40.00
2022-09-24T15:35:18.651Z,40.37
2022-09-24T15:37:48.569Z,42.30
2022-09-24T15:40:25.782Z,39.87
2022-09-24T15:42:53.422Z,40.60
2022-09-24T15:45:22.108Z,41.07
2022-09-24T15:47:49.768Z,41.77
2022-09-24T15:50:17.269Z,40.30
2022-09-24T15:52:48.955Z,41.43
2022-09-24T15:55:19.170Z,42.40
2022-09-24T15:57:47.113Z,40.53
2022-09-24T16:00:16.249Z,43.10
2022-09-24T16:02:44.973Z,43.73
2022-09-24T16:05:13.836Z,42.87
2022-09-24T16:07:41.266Z,43.53
2022-09-24T16:10:11.153Z,44.27
2022-09-24T16:12:38.767Z,43.77
2022-09-24T16:15:07.603Z,44.80
2022-09-24T16:17:35.033Z,47.60
2022-09-24T16:20:02.848Z,46.47
2022-09-24T16:22:30.235Z,46.13
2022-09-24T16:24:57.659Z,44.27
2022-09-24T16:27:29.692Z,44.67
2022-09-24T16:29:57.091Z,45.33
2022-09-24T16:32:24.412Z,50.90
2022-09-24T16:34:51.866Z,49.53
2022-09-24T16:37:19.225Z,49.60
2022-09-24T16:39:47.545Z,54.27
2022-09-24T16:42:14.861Z,53.20
2022-09-24T16:44:43.554Z,56.13
2022-09-24T16:47:10.946Z,52.47
2022-09-24T16:49:38.321Z,51.90
2022-09-24T16:52:06.117Z,52.20
2022-09-24T16:54:33.495Z,51.93
2022-09-24T16:57:01.774Z,58.03
2022-09-24T16:59:29.145Z,52.43
2022-09-24T17:01:59.379Z,55.97
2022-09-24T17:04:26.911Z,57.47
2022-09-24T17:06:54.681Z,59.00
2022-09-24T17:09:39.878Z,62.83
2022-09-24T17:12:07.472Z,67.07
2022-09-24T17:14:37.437Z,61.80
2022-09-24T17:17:06.629Z,65.20
2022-09-24T17:19:34.202Z,65.73
2022-09-24T17:22:01.720Z,65.33
2022-09-24T17:24:29.239Z,67.30
2022-09-24T17:26:56.658Z,62.43
2022-09-24T17:29:30.422Z,64.93
2022-09-24T17:31:58.968Z,68.20
2022-09-24T17:34:28.189Z,66.33
2022-09-24T17:36:56.424Z,70.17
2022-09-24T17:39:24.041Z,72.67
2022-09-24T17:41:51.365Z,73.50
2022-09-24T17:44:18.895Z,76.27
2022-09-24T17:46:46.388Z,76.53
2022-09-24T17:49:15.354Z,75.23
2022-09-24T17:51:46.337Z,76.53
2022-09-24T17:54:15.615Z,71.53
2022-09-24T17:56:43.297Z,74.10
2022-09-24T17:59:12.670Z,70.50
2022-09-24T18:01:44.553Z,73.60
2022-09-24T18:04:13.831Z,73.40
2022-09-24T18:06:42.494Z,68.90
2022-09-24T18:09:12.989Z,76.40
2022-09-24T18:11:41.738Z,78.43
2022-09-24T18:14:14.370Z,79.10
2022-09-24T18:16:42.227Z,74.80
2022-09-24T18:19:10.697Z,73.33
2022-09-24T18:21:38.181Z,73.37
2022-09-24T18:24:06.077Z,68.40
2022-09-24T18:26:36.508Z,70.73
2022-09-24T18:29:05.942Z,72.40
2022-09-24T18:31:34.694Z,70.03
2022-09-24T18:34:04.140Z,69.70
2022-09-24T18:36:32.037Z,73.97
2022-09-24T18:38:59.373Z,79.23
2022-09-24T18:41:28.765Z,79.07
2022-09-24T18:43:58.754Z,71.90
2022-09-24T18:46:28.978Z,86.37
2022-09-24T18:48:57.378Z,89.40
2022-09-24T18:51:26.633Z,91.37
2022-09-24T18:53:54.997Z,94.87
2022-09-24T18:56:23.821Z,87.03
2022-09-24T18:58:57.016Z,87.47
2022-09-24T19:01:25.168Z,83.77
2022-09-24T19:03:52.721Z,87.73
2022-09-24T19:06:20.429Z,90.80
2022-09-24T19:08:48.921Z,85.83
2022-09-24T19:11:17.405Z,91.77
2022-09-24T19:13:49.348Z,88.73
2022-09-24T19:16:21.078Z,84.37
2022-09-24T19:18:48.537Z,83.10
2022-09-24T19:21:16.368Z,85.53
2022-09-24T19:23:45.774Z,87.73
2022-09-24T19:26:15.346Z,83.27
2022-09-24T19:28:43.378Z,87.37
2022-09-24T19:31:14.774Z,86.50
2022-09-24T19:33:43.972Z,88.13
2022-09-24T19:36:11.664Z,88.23
2022-09-24T19:38:39.092Z,83.03
2022-09-24T19:41:08.410Z,87.50
2022-09-24T19:43:35.846Z,84.73
2022-09-24T19:46:05.760Z,74.93
2022-09-24T19:48:36.449Z,68.40
2022-09-24T19:51:08.554Z,78.30
2022-09-24T19:53:37.537Z,68.17
2022-09-24T19:56:05.541Z,62.30
2022-09-24T19:58:33.508Z,57.13
2022-09-24T20:01:05.396Z,52.83
2022-09-24T20:03:33.115Z,48.23
2022-09-24T20:06:00.593Z,46.83
2022-09-24T20:08:29.423Z,43.53
2022-09-24T20:10:56.777Z,43.10
2022-09-24T20:13:24.118Z,38.30
2022-09-24T20:15:58.373Z,31.63
2022-09-24T20:18:26.175Z,30.80
2022-09-24T20:20:54.514Z,25.40
2022-09-24T20:23:22.169Z,24.70
2022-09-24T20:26:12.632Z,24.90
2022-09-24T20:28:40.422Z,23.80
2022-09-24T20:31:10.104Z,23.20
2022-09-24T20:33:38.358Z,25.50
2022-09-24T20:36:14.733Z,22.70
2022-09-24T20:38:44.397Z,23.47
2022-09-24T20:41:15.193Z,24.37
2022-09-24T20:43:43.326Z,23.37
2022-09-24T20:46:14.013Z,23.77
2022-09-24T20:48:41.433Z,23.23
2022-09-24T20:51:09.779Z,24.80
2022-09-24T20:53:37.248Z,23.83
2022-09-24T20:56:05.854Z,24.20
2022-09-24T20:58:34.636Z,23.80
2022-09-24T21:01:05.381Z,28.30
2022-09-24T21:03:49.924Z,25.97
2022-09-24T21:06:18.446Z,24.37
2022-09-24T21:08:47.310Z,23.27
2022-09-24T21:11:17.873Z,23.97
2022-09-24T21:13:48.889Z,23.13
2022-09-24T21:16:17.503Z,25.00
2022-09-24T21:18:45.034Z,24.67
2022-09-24T21:21:15.975Z,23.60
2022-09-24T21:23:43.881Z,24.80
2022-09-24T21:26:13.018Z,25.70
2022-09-24T21:28:40.450Z,26.03
2022-09-24T21:31:09.210Z,25.23
2022-09-24T21:33:36.661Z,26.07
2022-09-24T21:36:05.604Z,24.13
2022-09-24T21:38:33.369Z,26.63
2022-09-24T21:41:03.166Z,27.83
2022-09-24T21:43:34.599Z,30.40
2022-09-24T21:46:04.888Z,30.77
2022-09-24T21:48:34.373Z,29.80
2022-09-24T21:51:06.442Z,28.37
2022-09-24T21:53:34.392Z,35.13
2022-09-24T21:56:02.373Z,32.33
2022-09-24T21:58:30.481Z,32.30
2022-09-24T22:01:00.930Z,32.30
2022-09-24T22:03:31.010Z,34.03
2022-09-24T22:06:03.857Z,34.13
2022-09-24T22:08:31.960Z,33.47
2022-09-24T22:11:04.285Z,33.60
2022-09-24T22:13:32.630Z,34.60
2022-09-24T22:16:01.442Z,31.83
2022-09-24T22:18:28.913Z,38.47
2022-09-24T22:20:57.849Z,34.83
2022-09-24T22:23:26.779Z,37.20
2022-09-24T22:25:56.092Z,35.27
2022-09-24T22:28:25.018Z,36.73
2022-09-24T22:30:53.247Z,36.60
2022-09-24T22:33:41.170Z,38.03
2022-09-24T22:36:08.953Z,39.33
2022-09-24T22:38:37.881Z,34.60
2022-09-24T22:41:08.034Z,35.83
2022-09-24T22:43:35.829Z,39.00
2022-09-24T22:46:05.607Z,40.17
2022-09-24T22:48:33.352Z,40.20
2022-09-24T22:51:00.822Z,44.23
2022-09-24T22:53:28.345Z,41.90
2022-09-24T22:56:05.328Z,43.80
2022-09-24T22:58:33.542Z,42.53
2022-09-24T23:01:07.383Z,42.93
2022-09-24T23:03:35.162Z,46.10
2022-09-24T23:06:02.642Z,46.97
2022-09-24T23:08:33.222Z,47.47
2022-09-24T23:11:07.926Z,47.13
2022-09-24T23:13:35.728Z,45.00
2022-09-24T23:16:11.566Z,44.40
2022-09-24T23:18:39.289Z,43.90
2022-09-24T23:21:07.266Z,49.57
2022-09-24T23:23:34.763Z,47.30
2022-09-24T23:26:04.724Z,47.47
2022-09-24T23:28:33.760Z,46.73
2022-09-24T23:31:01.598Z,49.53
2022-09-24T23:33:32.237Z,51.77
2022-09-24T23:35:59.871Z,44.30
2022-09-24T23:38:27.503Z,43.37
2022-09-24T23:40:54.990Z,49.07
2022-09-24T23:43:55.653Z,45.30
2022-09-24T23:46:23.074Z,43.97
2022-09-24T23:48:50.489Z,45.27
2022-09-24T23:51:17.839Z,41.07
2022-09-24T23:53:45.194Z,44.73
2022-09-24T23:56:13.280Z,47.50
2022-09-24T23:58:41.941Z,45.93
